Terminal Aerodrome Forecast
Issued by NWS

Home | Current Version | Previous Version | Text Only | Print | Product List | Glossary On
Versions: 1 2 3 4 5 6 7 8 9 10 11 12 13 14 15 16
000
FTUS46 KMTR 262342
TAFSNS
TAF
KSNS 262342Z 2700/2724 28009KT P6SM BKN025
     FM270200 29010KT P6SM OVC012
     FM270500 30005KT P6SM OVC008
     FM271200 VRB03KT P6SM OVC008
     FM272000 29010KT P6SM SKC=

USA.gov is the U.S. government's official web portal to all federal, state and local government web resources and services.